sensor_id;sensor_type;location;lat;lon;timestamp;P1;durP1;ratioP1;P2;durP2;ratioP2
23596;SDS011;40226;50.874;4.394;2023-03-01T00:00:19;24.13;;;15.80;;
23596;SDS011;40226;50.874;4.394;2023-03-01T00:02:44;27.65;;;16.40;;
23596;SDS011;40226;50.874;4.394;2023-03-01T00:05:10;23.08;;;15.98;;
23596;SDS011;40226;50.874;4.394;2023-03-01T00:07:36;25.50;;;16.00;;
23596;SDS011;40226;50.874;4.394;2023-03-01T00:10:01;30.55;;;17.17;;
23596;SDS011;40226;50.874;4.394;2023-03-01T00:12:27;24.42;;;16.63;;
23596;SDS011;40226;50.874;4.394;2023-03-01T00:14:53;25.95;;;16.60;;
23596;SDS011;40226;50.874;4.394;2023-03-01T00:17:18;28.38;;;17.45;;
23596;SDS011;40226;50.874;4.394;2023-03-01T00:19:44;26.13;;;15.77;;
23596;SDS011;40226;50.874;4.394;2023-03-01T00:22:09;22.00;;;15.68;;
23596;SDS011;40226;50.874;4.394;2023-03-01T00:24:35;26.33;;;16.23;;
23596;SDS011;40226;50.874;4.394;2023-03-01T00:27:00;24.73;;;15.80;;
23596;SDS011;40226;50.874;4.394;2023-03-01T00:29:26;25.85;;;16.08;;
23596;SDS011;40226;50.874;4.394;2023-03-01T00:31:52;24.80;;;16.33;;
23596;SDS011;40226;50.874;4.394;2023-03-01T00:34:18;22.98;;;15.25;;
23596;SDS011;40226;50.874;4.394;2023-03-01T00:36:43;22.42;;;15.85;;
23596;SDS011;40226;50.874;4.394;2023-03-01T00:39:10;23.27;;;15.52;;
23596;SDS011;40226;50.874;4.394;2023-03-01T00:41:38;26.88;;;15.95;;
23596;SDS011;40226;50.874;4.394;2023-03-01T00:44:05;26.83;;;15.90;;
23596;SDS011;40226;50.874;4.394;2023-03-01T00:46:30;23.83;;;15.15;;
23596;SDS011;40226;50.874;4.394;2023-03-01T00:48:56;20.90;;;14.93;;
23596;SDS011;40226;50.874;4.394;2023-03-01T00:51:23;26.67;;;15.73;;
23596;SDS011;40226;50.874;4.394;2023-03-01T00:53:51;23.63;;;15.48;;
23596;SDS011;40226;50.874;4.394;2023-03-01T00:56:22;23.35;;;15.75;;
23596;SDS011;40226;50.874;4.394;2023-03-01T00:58:49;22.70;;;14.95;;
23596;SDS011;40226;50.874;4.394;2023-03-01T01:01:16;26.00;;;14.88;;
23596;SDS011;40226;50.874;4.394;2023-03-01T01:03:47;24.25;;;15.70;;
23596;SDS011;40226;50.874;4.394;2023-03-01T01:06:19;31.73;;;15.43;;
23596;SDS011;40226;50.874;4.394;2023-03-01T01:08:49;26.67;;;15.50;;
23596;SDS011;40226;50.874;4.394;2023-03-01T01:11:16;28.10;;;15.55;;
23596;SDS011;40226;50.874;4.394;2023-03-01T01:13:43;25.83;;;16.08;;
23596;SDS011;40226;50.874;4.394;2023-03-01T01:16:10;24.83;;;15.20;;
23596;SDS011;40226;50.874;4.394;2023-03-01T01:18:36;23.98;;;15.13;;
23596;SDS011;40226;50.874;4.394;2023-03-01T01:21:08;25.52;;;14.60;;
23596;SDS011;40226;50.874;4.394;2023-03-01T01:23:36;29.52;;;15.15;;
23596;SDS011;40226;50.874;4.394;2023-03-01T01:26:04;22.73;;;15.23;;
23596;SDS011;40226;50.874;4.394;2023-03-01T01:28:34;28.52;;;15.55;;
23596;SDS011;40226;50.874;4.394;2023-03-01T01:30:59;25.25;;;14.95;;
23596;SDS011;40226;50.874;4.394;2023-03-01T01:33:25;24.58;;;15.38;;
23596;SDS011;40226;50.874;4.394;2023-03-01T01:35:51;30.55;;;15.98;;
23596;SDS011;40226;50.874;4.394;2023-03-01T01:38:17;29.33;;;15.77;;
23596;SDS011;40226;50.874;4.394;2023-03-01T01:40:46;23.05;;;14.40;;
23596;SDS011;40226;50.874;4.394;2023-03-01T01:45:47;26.20;;;15.25;;
23596;SDS011;40226;50.874;4.394;2023-03-01T01:48:19;25.90;;;14.60;;
23596;SDS011;40226;50.874;4.394;2023-03-01T01:50:50;22.70;;;14.98;;
23596;SDS011;40226;50.874;4.394;2023-03-01T01:53:21;25.85;;;15.65;;
23596;SDS011;40226;50.874;4.394;2023-03-01T01:55:50;24.23;;;14.95;;
23596;SDS011;40226;50.874;4.394;2023-03-01T01:58:19;25.60;;;14.77;;
23596;SDS011;40226;50.874;4.394;2023-03-01T02:00:46;24.95;;;15.30;;
23596;SDS011;40226;50.874;4.394;2023-03-01T02:03:14;27.10;;;16.23;;
23596;SDS011;40226;50.874;4.394;2023-03-01T02:06:06;26.10;;;15.82;;
23596;SDS011;40226;50.874;4.394;2023-03-01T02:08:54;27.42;;;14.55;;
23596;SDS011;40226;50.874;4.394;2023-03-01T02:11:23;28.88;;;16.23;;
23596;SDS011;40226;50.874;4.394;2023-03-01T02:13:50;25.38;;;16.15;;
23596;SDS011;40226;50.874;4.394;2023-03-01T02:16:17;23.35;;;15.63;;
23596;SDS011;40226;50.874;4.394;2023-03-01T02:18:43;24.73;;;15.35;;
23596;SDS011;40226;50.874;4.394;2023-03-01T02:23:47;24.63;;;16.10;;
23596;SDS011;40226;50.874;4.394;2023-03-01T02:29:07;26.50;;;15.82;;
23596;SDS011;40226;50.874;4.394;2023-03-01T02:31:32;26.80;;;15.85;;
23596;SDS011;40226;50.874;4.394;2023-03-01T02:34:09;26.77;;;16.33;;
23596;SDS011;40226;50.874;4.394;2023-03-01T02:36:42;23.67;;;15.73;;
23596;SDS011;40226;50.874;4.394;2023-03-01T02:39:14;24.13;;;15.52;;
23596;SDS011;40226;50.874;4.394;2023-03-01T02:41:54;25.67;;;15.95;;
23596;SDS011;40226;50.874;4.394;2023-03-01T02:44:21;26.90;;;15.85;;
23596;SDS011;40226;50.874;4.394;2023-03-01T02:46:48;25.83;;;15.73;;
23596;SDS011;40226;50.874;4.394;2023-03-01T02:49:17;23.25;;;15.10;;
23596;SDS011;40226;50.874;4.394;2023-03-01T02:51:52;24.98;;;15.25;;
23596;SDS011;40226;50.874;4.394;2023-03-01T02:54:46;24.50;;;16.02;;
23596;SDS011;40226;50.874;4.394;2023-03-01T02:57:17;22.35;;;14.90;;
23596;SDS011;40226;50.874;4.394;2023-03-01T02:59:44;24.33;;;14.95;;
23596;SDS011;40226;50.874;4.394;2023-03-01T03:05:01;23.80;;;14.75;;
23596;SDS011;40226;50.874;4.394;2023-03-01T03:07:34;21.80;;;14.60;;
23596;SDS011;40226;50.874;4.394;2023-03-01T03:10:03;26.42;;;15.43;;
23596;SDS011;40226;50.874;4.394;2023-03-01T03:12:31;24.88;;;15.05;;
23596;SDS011;40226;50.874;4.394;2023-03-01T03:14:56;26.98;;;15.70;;
23596;SDS011;40226;50.874;4.394;2023-03-01T03:17:22;26.95;;;16.80;;
23596;SDS011;40226;50.874;4.394;2023-03-01T03:19:48;23.90;;;15.60;;
23596;SDS011;40226;50.874;4.394;2023-03-01T03:22:14;25.05;;;15.50;;
23596;SDS011;40226;50.874;4.394;2023-03-01T03:24:40;24.80;;;14.75;;
23596;SDS011;40226;50.874;4.394;2023-03-01T03:27:06;23.88;;;15.63;;
23596;SDS011;40226;50.874;4.394;2023-03-01T03:29:32;27.65;;;15.55;;
23596;SDS011;40226;50.874;4.394;2023-03-01T03:31:58;23.52;;;15.55;;
23596;SDS011;40226;50.874;4.394;2023-03-01T03:34:24;22.38;;;15.15;;
23596;SDS011;40226;50.874;4.394;2023-03-01T03:36:56;22.58;;;14.93;;
23596;SDS011;40226;50.874;4.394;2023-03-01T03:39:24;25.40;;;15.93;;
23596;SDS011;40226;50.874;4.394;2023-03-01T03:41:51;25.38;;;15.55;;
23596;SDS011;40226;50.874;4.394;2023-03-01T03:44:17;28.73;;;15.98;;
23596;SDS011;40226;50.874;4.394;2023-03-01T03:46:43;23.13;;;16.15;;
23596;SDS011;40226;50.874;4.394;2023-03-01T03:49:08;27.17;;;16.33;;
23596;SDS011;40226;50.874;4.394;2023-03-01T03:51:34;25.42;;;16.02;;
23596;SDS011;40226;50.874;4.394;2023-03-01T03:53:59;25.20;;;15.90;;
23596;SDS011;40226;50.874;4.394;2023-03-01T03:56:25;25.95;;;15.40;;
23596;SDS011;40226;50.874;4.394;2023-03-01T03:58:51;33.85;;;16.75;;
23596;SDS011;40226;50.874;4.394;2023-03-01T04:01:17;25.75;;;16.42;;
23596;SDS011;40226;50.874;4.394;2023-03-01T04:03:43;26.35;;;16.08;;
23596;SDS011;40226;50.874;4.394;2023-03-01T04:06:12;26.20;;;16.77;;
23596;SDS011;40226;50.874;4.394;2023-03-01T04:08:39;26.05;;;16.10;;
23596;SDS011;40226;50.874;4.394;2023-03-01T04:11:06;26.63;;;16.70;;
23596;SDS011;40226;50.874;4.394;2023-03-01T04:13:50;25.92;;;14.82;;
23596;SDS011;40226;50.874;4.394;2023-03-01T04:16:17;26.83;;;15.43;;
23596;SDS011;40226;50.874;4.394;2023-03-01T04:18:43;28.38;;;17.27;;
23596;SDS011;40226;50.874;4.394;2023-03-01T04:21:09;30.08;;;17.95;;
23596;SDS011;40226;50.874;4.394;2023-03-01T04:23:36;28.85;;;19.02;;
23596;SDS011;40226;50.874;4.394;2023-03-01T04:26:02;28.33;;;17.52;;
23596;SDS011;40226;50.874;4.394;2023-03-01T04:28:36;28.73;;;17.77;;
23596;SDS011;40226;50.874;4.394;2023-03-01T04:31:06;26.05;;;18.02;;
23596;SDS011;40226;50.874;4.394;2023-03-01T04:33:44;26.20;;;16.45;;
23596;SDS011;40226;50.874;4.394;2023-03-01T04:36:12;27.83;;;17.60;;
23596;SDS011;40226;50.874;4.394;2023-03-01T04:38:39;31.40;;;16.70;;
23596;SDS011;40226;50.874;4.394;2023-03-01T04:41:06;29.42;;;17.10;;
23596;SDS011;40226;50.874;4.394;2023-03-01T04:43:33;28.77;;;17.35;;
23596;SDS011;40226;50.874;4.394;2023-03-01T04:46:00;27.85;;;16.83;;
23596;SDS011;40226;50.874;4.394;2023-03-01T04:48:27;30.70;;;17.10;;
23596;SDS011;40226;50.874;4.394;2023-03-01T04:50:53;28.52;;;17.35;;
23596;SDS011;40226;50.874;4.394;2023-03-01T04:53:19;32.60;;;17.05;;
23596;SDS011;40226;50.874;4.394;2023-03-01T04:55:44;31.02;;;17.73;;
23596;SDS011;40226;50.874;4.394;2023-03-01T04:58:10;32.88;;;17.23;;
23596;SDS011;40226;50.874;4.394;2023-03-01T05:00:35;27.38;;;16.67;;
23596;SDS011;40226;50.874;4.394;2023-03-01T05:03:01;25.75;;;16.10;;
23596;SDS011;40226;50.874;4.394;2023-03-01T05:05:28;28.73;;;17.10;;
23596;SDS011;40226;50.874;4.394;2023-03-01T05:08:08;30.50;;;17.30;;
23596;SDS011;40226;50.874;4.394;2023-03-01T05:10:42;27.58;;;16.42;;
23596;SDS011;40226;50.874;4.394;2023-03-01T05:13:18;30.98;;;16.90;;
23596;SDS011;40226;50.874;4.394;2023-03-01T05:15:48;28.33;;;16.90;;
23596;SDS011;40226;50.874;4.394;2023-03-01T05:18:19;27.80;;;17.98;;
23596;SDS011;40226;50.874;4.394;2023-03-01T05:20:45;27.45;;;16.17;;
23596;SDS011;40226;50.874;4.394;2023-03-01T05:23:12;33.05;;;17.17;;
23596;SDS011;40226;50.874;4.394;2023-03-01T05:25:37;30.02;;;16.65;;
23596;SDS011;40226;50.874;4.394;2023-03-01T05:28:05;27.48;;;17.25;;
23596;SDS011;40226;50.874;4.394;2023-03-01T05:30:35;31.83;;;17.27;;
23596;SDS011;40226;50.874;4.394;2023-03-01T05:33:01;30.20;;;17.17;;
23596;SDS011;40226;50.874;4.394;2023-03-01T05:35:27;30.77;;;18.25;;
23596;SDS011;40226;50.874;4.394;2023-03-01T05:37:53;29.85;;;17.90;;
23596;SDS011;40226;50.874;4.394;2023-03-01T05:40:20;27.80;;;16.83;;
23596;SDS011;40226;50.874;4.394;2023-03-01T05:42:48;29.17;;;17.02;;
23596;SDS011;40226;50.874;4.394;2023-03-01T05:45:17;33.30;;;16.80;;
23596;SDS011;40226;50.874;4.394;2023-03-01T05:47:44;28.25;;;16.85;;
23596;SDS011;40226;50.874;4.394;2023-03-01T05:52:49;50.35;;;18.20;;
23596;SDS011;40226;50.874;4.394;2023-03-01T05:55:36;29.92;;;17.13;;
23596;SDS011;40226;50.874;4.394;2023-03-01T05:58:03;36.50;;;17.17;;
23596;SDS011;40226;50.874;4.394;2023-03-01T06:00:31;27.58;;;16.90;;
23596;SDS011;40226;50.874;4.394;2023-03-01T06:02:57;36.13;;;17.70;;
23596;SDS011;40226;50.874;4.394;2023-03-01T06:05:24;28.58;;;16.33;;
23596;SDS011;40226;50.874;4.394;2023-03-01T06:07:50;33.25;;;17.50;;
23596;SDS011;40226;50.874;4.394;2023-03-01T06:10:20;37.88;;;18.52;;
23596;SDS011;40226;50.874;4.394;2023-03-01T06:12:47;31.90;;;18.23;;
23596;SDS011;40226;50.874;4.394;2023-03-01T06:15:14;33.22;;;17.98;;
23596;SDS011;40226;50.874;4.394;2023-03-01T06:17:41;31.00;;;17.42;;
23596;SDS011;40226;50.874;4.394;2023-03-01T06:20:09;30.30;;;17.38;;
23596;SDS011;40226;50.874;4.394;2023-03-01T06:22:40;31.27;;;16.58;;
23596;SDS011;40226;50.874;4.394;2023-03-01T06:25:06;26.70;;;16.42;;
23596;SDS011;40226;50.874;4.394;2023-03-01T06:27:33;29.13;;;19.52;;
23596;SDS011;40226;50.874;4.394;2023-03-01T06:29:58;28.08;;;17.15;;
23596;SDS011;40226;50.874;4.394;2023-03-01T06:32:24;27.05;;;16.92;;
23596;SDS011;40226;50.874;4.394;2023-03-01T06:34:50;27.05;;;17.00;;
23596;SDS011;40226;50.874;4.394;2023-03-01T06:37:15;31.38;;;17.20;;
23596;SDS011;40226;50.874;4.394;2023-03-01T06:39:41;28.08;;;17.27;;
23596;SDS011;40226;50.874;4.394;2023-03-01T06:42:07;30.60;;;17.00;;
23596;SDS011;40226;50.874;4.394;2023-03-01T06:44:34;30.15;;;17.27;;
23596;SDS011;40226;50.874;4.394;2023-03-01T06:47:00;27.48;;;16.50;;
23596;SDS011;40226;50.874;4.394;2023-03-01T06:49:26;31.30;;;17.27;;
23596;SDS011;40226;50.874;4.394;2023-03-01T06:51:52;31.02;;;17.45;;
23596;SDS011;40226;50.874;4.394;2023-03-01T06:54:18;30.08;;;17.48;;
23596;SDS011;40226;50.874;4.394;2023-03-01T06:56:47;38.85;;;17.45;;
23596;SDS011;40226;50.874;4.394;2023-03-01T06:59:12;29.80;;;18.38;;
23596;SDS011;40226;50.874;4.394;2023-03-01T07:01:38;33.78;;;17.40;;
23596;SDS011;40226;50.874;4.394;2023-03-01T07:04:04;35.20;;;18.23;;
23596;SDS011;40226;50.874;4.394;2023-03-01T07:06:30;31.27;;;18.75;;
23596;SDS011;40226;50.874;4.394;2023-03-01T07:08:55;40.10;;;19.45;;
23596;SDS011;40226;50.874;4.394;2023-03-01T07:11:21;35.80;;;17.90;;
23596;SDS011;40226;50.874;4.394;2023-03-01T07:13:48;32.33;;;19.02;;
23596;SDS011;40226;50.874;4.394;2023-03-01T07:16:14;33.40;;;17.17;;
23596;SDS011;40226;50.874;4.394;2023-03-01T07:18:40;32.22;;;18.65;;
23596;SDS011;40226;50.874;4.394;2023-03-01T07:21:07;27.13;;;17.27;;
23596;SDS011;40226;50.874;4.394;2023-03-01T07:23:34;27.30;;;16.45;;
23596;SDS011;40226;50.874;4.394;2023-03-01T07:25:59;30.55;;;17.38;;
23596;SDS011;40226;50.874;4.394;2023-03-01T07:28:25;35.10;;;17.85;;
23596;SDS011;40226;50.874;4.394;2023-03-01T07:30:52;28.00;;;17.02;;
23596;SDS011;40226;50.874;4.394;2023-03-01T07:33:18;36.22;;;17.98;;
23596;SDS011;40226;50.874;4.394;2023-03-01T07:35:43;26.15;;;17.05;;
23596;SDS011;40226;50.874;4.394;2023-03-01T07:38:09;31.75;;;18.02;;
23596;SDS011;40226;50.874;4.394;2023-03-01T07:40:35;29.30;;;17.90;;
23596;SDS011;40226;50.874;4.394;2023-03-01T07:43:00;38.17;;;17.70;;
23596;SDS011;40226;50.874;4.394;2023-03-01T07:45:26;33.47;;;18.58;;
23596;SDS011;40226;50.874;4.394;2023-03-01T07:47:53;31.27;;;18.45;;
23596;SDS011;40226;50.874;4.394;2023-03-01T07:50:19;37.00;;;18.77;;
23596;SDS011;40226;50.874;4.394;2023-03-01T07:52:46;33.80;;;18.73;;
23596;SDS011;40226;50.874;4.394;2023-03-01T07:55:12;30.95;;;17.58;;
23596;SDS011;40226;50.874;4.394;2023-03-01T07:57:38;31.90;;;16.77;;
23596;SDS011;40226;50.874;4.394;2023-03-01T08:00:04;28.73;;;17.60;;
23596;SDS011;40226;50.874;4.394;2023-03-01T08:02:31;30.73;;;18.20;;
23596;SDS011;40226;50.874;4.394;2023-03-01T08:04:56;31.42;;;17.38;;
23596;SDS011;40226;50.874;4.394;2023-03-01T08:07:22;26.70;;;16.27;;
23596;SDS011;40226;50.874;4.394;2023-03-01T08:09:47;32.85;;;17.10;;
23596;SDS011;40226;50.874;4.394;2023-03-01T08:12:13;31.70;;;17.23;;
23596;SDS011;40226;50.874;4.394;2023-03-01T08:14:41;29.23;;;16.98;;
23596;SDS011;40226;50.874;4.394;2023-03-01T08:17:06;30.83;;;17.65;;
23596;SDS011;40226;50.874;4.394;2023-03-01T08:19:32;30.45;;;18.58;;
23596;SDS011;40226;50.874;4.394;2023-03-01T08:21:59;27.63;;;16.38;;
23596;SDS011;40226;50.874;4.394;2023-03-01T08:24:27;32.55;;;16.80;;
23596;SDS011;40226;50.874;4.394;2023-03-01T08:26:53;26.67;;;16.75;;
23596;SDS011;40226;50.874;4.394;2023-03-01T08:29:20;32.10;;;16.85;;
23596;SDS011;40226;50.874;4.394;2023-03-01T08:31:46;27.65;;;16.52;;
23596;SDS011;40226;50.874;4.394;2023-03-01T08:34:12;28.13;;;16.98;;
23596;SDS011;40226;50.874;4.394;2023-03-01T08:36:42;30.40;;;17.67;;
23596;SDS011;40226;50.874;4.394;2023-03-01T08:39:10;31.60;;;17.63;;
23596;SDS011;40226;50.874;4.394;2023-03-01T08:41:37;27.02;;;16.70;;
23596;SDS011;40226;50.874;4.394;2023-03-01T08:44:05;29.83;;;17.58;;
23596;SDS011;40226;50.874;4.394;2023-03-01T08:46:35;31.30;;;16.02;;
23596;SDS011;40226;50.874;4.394;2023-03-01T08:49:09;29.75;;;16.98;;
23596;SDS011;40226;50.874;4.394;2023-03-01T08:51:37;36.17;;;18.58;;
23596;SDS011;40226;50.874;4.394;2023-03-01T08:54:03;39.08;;;18.50;;
23596;SDS011;40226;50.874;4.394;2023-03-01T08:56:31;27.13;;;16.52;;
23596;SDS011;40226;50.874;4.394;2023-03-01T08:58:57;29.60;;;16.98;;
23596;SDS011;40226;50.874;4.394;2023-03-01T09:01:23;26.98;;;16.30;;
23596;SDS011;40226;50.874;4.394;2023-03-01T09:03:48;29.80;;;18.00;;
23596;SDS011;40226;50.874;4.394;2023-03-01T09:06:14;31.25;;;19.27;;
23596;SDS011;40226;50.874;4.394;2023-03-01T09:08:42;26.58;;;16.45;;
23596;SDS011;40226;50.874;4.394;2023-03-01T09:11:10;33.38;;;17.02;;
23596;SDS011;40226;50.874;4.394;2023-03-01T09:13:36;30.58;;;17.83;;
23596;SDS011;40226;50.874;4.394;2023-03-01T09:16:05;29.10;;;17.65;;
23596;SDS011;40226;50.874;4.394;2023-03-01T09:18:34;30.73;;;18.27;;
23596;SDS011;40226;50.874;4.394;2023-03-01T09:21:13;28.55;;;17.20;;
23596;SDS011;40226;50.874;4.394;2023-03-01T09:23:41;29.45;;;16.42;;
23596;SDS011;40226;50.874;4.394;2023-03-01T09:26:09;28.60;;;17.02;;
23596;SDS011;40226;50.874;4.394;2023-03-01T09:28:37;28.27;;;16.23;;
23596;SDS011;40226;50.874;4.394;2023-03-01T09:31:04;30.65;;;17.33;;
23596;SDS011;40226;50.874;4.394;2023-03-01T09:33:30;26.80;;;16.35;;
23596;SDS011;40226;50.874;4.394;2023-03-01T09:36:00;25.92;;;15.95;;
23596;SDS011;40226;50.874;4.394;2023-03-01T09:38:28;29.38;;;16.65;;
23596;SDS011;40226;50.874;4.394;2023-03-01T09:40:55;26.05;;;16.77;;
23596;SDS011;40226;50.874;4.394;2023-03-01T09:46:05;30.25;;;17.05;;
23596;SDS011;40226;50.874;4.394;2023-03-01T09:48:40;31.50;;;18.13;;
23596;SDS011;40226;50.874;4.394;2023-03-01T09:51:16;33.08;;;17.95;;
23596;SDS011;40226;50.874;4.394;2023-03-01T09:53:51;33.03;;;17.63;;
23596;SDS011;40226;50.874;4.394;2023-03-01T09:56:20;27.75;;;17.67;;
23596;SDS011;40226;50.874;4.394;2023-03-01T10:04:49;32.05;;;18.75;;
23596;SDS011;40226;50.874;4.394;2023-03-01T10:10:08;24.05;;;15.30;;
23596;SDS011;40226;50.874;4.394;2023-03-01T10:12:41;29.80;;;16.98;;
23596;SDS011;40226;50.874;4.394;2023-03-01T10:20:25;28.25;;;17.63;;
23596;SDS011;40226;50.874;4.394;2023-03-01T10:22:58;29.52;;;17.83;;
23596;SDS011;40226;50.874;4.394;2023-03-01T10:28:29;29.13;;;16.50;;
23596;SDS011;40226;50.874;4.394;2023-03-01T10:31:18;26.52;;;16.70;;
23596;SDS011;40226;50.874;4.394;2023-03-01T10:33:47;31.77;;;17.10;;
23596;SDS011;40226;50.874;4.394;2023-03-01T10:36:16;29.80;;;16.13;;
23596;SDS011;40226;50.874;4.394;2023-03-01T10:38:49;28.80;;;16.08;;
23596;SDS011;40226;50.874;4.394;2023-03-01T10:41:20;26.48;;;15.93;;
23596;SDS011;40226;50.874;4.394;2023-03-01T10:43:52;27.95;;;15.57;;
23596;SDS011;40226;50.874;4.394;2023-03-01T10:46:37;25.45;;;16.08;;
23596;SDS011;40226;50.874;4.394;2023-03-01T10:49:14;28.00;;;17.05;;
23596;SDS011;40226;50.874;4.394;2023-03-01T10:51:40;29.08;;;17.83;;
23596;SDS011;40226;50.874;4.394;2023-03-01T10:54:18;31.67;;;15.38;;
23596;SDS011;40226;50.874;4.394;2023-03-01T10:56:49;27.75;;;14.93;;
23596;SDS011;40226;50.874;4.394;2023-03-01T11:05:00;22.15;;;13.93;;
23596;SDS011;40226;50.874;4.394;2023-03-01T11:10:16;25.00;;;14.52;;
23596;SDS011;40226;50.874;4.394;2023-03-01T11:12:52;19.55;;;13.43;;
23596;SDS011;40226;50.874;4.394;2023-03-01T11:15:23;21.92;;;14.45;;
23596;SDS011;40226;50.874;4.394;2023-03-01T11:17:53;22.00;;;14.93;;
23596;SDS011;40226;50.874;4.394;2023-03-01T11:20:24;21.48;;;14.23;;
23596;SDS011;40226;50.874;4.394;2023-03-01T11:22:54;20.77;;;14.75;;
23596;SDS011;40226;50.874;4.394;2023-03-01T11:25:32;22.15;;;13.82;;
23596;SDS011;40226;50.874;4.394;2023-03-01T11:28:02;22.60;;;13.52;;
23596;SDS011;40226;50.874;4.394;2023-03-01T11:30:34;20.55;;;13.70;;
23596;SDS011;40226;50.874;4.394;2023-03-01T11:34:05;19.30;;;13.45;;
23596;SDS011;40226;50.874;4.394;2023-03-01T11:36:27;18.73;;;13.40;;
23596;SDS011;40226;50.874;4.394;2023-03-01T11:38:57;19.45;;;13.52;;
23596;SDS011;40226;50.874;4.394;2023-03-01T11:41:31;20.60;;;13.30;;
23596;SDS011;40226;50.874;4.394;2023-03-01T11:44:03;20.75;;;14.45;;
23596;SDS011;40226;50.874;4.394;2023-03-01T12:16:40;19.15;;;12.82;;
23596;SDS011;40226;50.874;4.394;2023-03-01T12:25:04;18.80;;;13.75;;
23596;SDS011;40226;50.874;4.394;2023-03-01T12:36:05;18.30;;;11.80;;
23596;SDS011;40226;50.874;4.394;2023-03-01T12:38:59;19.42;;;13.05;;
23596;SDS011;40226;50.874;4.394;2023-03-01T12:47:56;18.05;;;12.07;;
23596;SDS011;40226;50.874;4.394;2023-03-01T12:50:51;28.95;;;14.25;;
23596;SDS011;40226;50.874;4.394;2023-03-01T12:53:53;20.02;;;12.38;;
23596;SDS011;40226;50.874;4.394;2023-03-01T12:56:13;18.25;;;12.70;;
23596;SDS011;40226;50.874;4.394;2023-03-01T12:58:49;20.00;;;13.32;;
23596;SDS011;40226;50.874;4.394;2023-03-01T13:07:21;21.73;;;13.25;;
23596;SDS011;40226;50.874;4.394;2023-03-01T13:09:41;18.52;;;11.27;;
23596;SDS011;40226;50.874;4.394;2023-03-01T13:15:30;17.15;;;11.50;;
23596;SDS011;40226;50.874;4.394;2023-03-01T13:17:59;19.50;;;12.20;;
23596;SDS011;40226;50.874;4.394;2023-03-01T13:31:00;19.15;;;12.93;;
23596;SDS011;40226;50.874;4.394;2023-03-01T13:35:56;19.27;;;12.65;;
23596;SDS011;40226;50.874;4.394;2023-03-01T13:41:09;21.75;;;12.98;;
23596;SDS011;40226;50.874;4.394;2023-03-01T13:43:36;19.45;;;12.60;;
23596;SDS011;40226;50.874;4.394;2023-03-01T13:46:24;18.48;;;12.65;;
23596;SDS011;40226;50.874;4.394;2023-03-01T13:48:51;17.50;;;13.15;;
23596;SDS011;40226;50.874;4.394;2023-03-01T13:51:21;19.40;;;12.73;;
23596;SDS011;40226;50.874;4.394;2023-03-01T13:53:50;17.77;;;12.50;;
23596;SDS011;40226;50.874;4.394;2023-03-01T13:56:19;17.42;;;11.93;;
23596;SDS011;40226;50.874;4.394;2023-03-01T13:59:31;19.13;;;11.70;;
23596;SDS011;40226;50.874;4.394;2023-03-01T14:01:43;15.80;;;11.35;;
23596;SDS011;40226;50.874;4.394;2023-03-01T14:04:28;22.05;;;13.45;;
23596;SDS011;40226;50.874;4.394;2023-03-01T14:09:56;16.45;;;12.00;;
23596;SDS011;40226;50.874;4.394;2023-03-01T14:18:53;19.55;;;13.02;;
23596;SDS011;40226;50.874;4.394;2023-03-01T14:21:23;18.23;;;11.82;;
23596;SDS011;40226;50.874;4.394;2023-03-01T14:23:50;18.00;;;11.93;;
23596;SDS011;40226;50.874;4.394;2023-03-01T14:26:19;17.60;;;12.38;;
23596;SDS011;40226;50.874;4.394;2023-03-01T14:28:49;22.70;;;13.43;;
23596;SDS011;40226;50.874;4.394;2023-03-01T14:34:02;16.98;;;12.65;;
23596;SDS011;40226;50.874;4.394;2023-03-01T14:36:29;14.85;;;11.80;;
23596;SDS011;40226;50.874;4.394;2023-03-01T14:38:57;17.65;;;12.77;;
23596;SDS011;40226;50.874;4.394;2023-03-01T14:41:33;18.77;;;14.10;;
23596;SDS011;40226;50.874;4.394;2023-03-01T14:46:38;20.83;;;15.82;;
23596;SDS011;40226;50.874;4.394;2023-03-01T14:49:17;20.52;;;13.57;;
23596;SDS011;40226;50.874;4.394;2023-03-01T14:52:07;19.60;;;13.82;;
23596;SDS011;40226;50.874;4.394;2023-03-01T14:54:49;22.08;;;13.95;;
23596;SDS011;40226;50.874;4.394;2023-03-01T14:57:20;25.27;;;15.20;;
23596;SDS011;40226;50.874;4.394;2023-03-01T14:59:48;22.95;;;14.02;;
23596;SDS011;40226;50.874;4.394;2023-03-01T15:02:17;21.80;;;13.75;;
23596;SDS011;40226;50.874;4.394;2023-03-01T15:04:47;24.67;;;14.32;;
23596;SDS011;40226;50.874;4.394;2023-03-01T15:07:16;26.52;;;14.50;;
23596;SDS011;40226;50.874;4.394;2023-03-01T15:09:42;21.75;;;13.80;;
23596;SDS011;40226;50.874;4.394;2023-03-01T15:12:54;20.70;;;13.77;;
23596;SDS011;40226;50.874;4.394;2023-03-01T15:15:18;19.27;;;13.57;;
23596;SDS011;40226;50.874;4.394;2023-03-01T15:18:00;24.58;;;14.27;;
23596;SDS011;40226;50.874;4.394;2023-03-01T15:20:29;22.35;;;14.35;;
23596;SDS011;40226;50.874;4.394;2023-03-01T15:23:00;20.30;;;14.90;;
23596;SDS011;40226;50.874;4.394;2023-03-01T15:25:27;23.42;;;14.57;;
23596;SDS011;40226;50.874;4.394;2023-03-01T15:27:54;19.90;;;13.70;;
23596;SDS011;40226;50.874;4.394;2023-03-01T15:30:23;22.92;;;15.60;;
23596;SDS011;40226;50.874;4.394;2023-03-01T15:35:57;25.33;;;14.55;;
23596;SDS011;40226;50.874;4.394;2023-03-01T15:38:32;27.63;;;14.77;;
23596;SDS011;40226;50.874;4.394;2023-03-01T15:41:01;25.52;;;14.52;;
23596;SDS011;40226;50.874;4.394;2023-03-01T15:46:11;23.23;;;14.60;;
23596;SDS011;40226;50.874;4.394;2023-03-01T15:48:46;24.25;;;14.35;;
23596;SDS011;40226;50.874;4.394;2023-03-01T15:51:14;23.55;;;14.07;;
23596;SDS011;40226;50.874;4.394;2023-03-01T15:53:41;24.70;;;14.73;;
23596;SDS011;40226;50.874;4.394;2023-03-01T15:56:14;25.20;;;15.07;;
23596;SDS011;40226;50.874;4.394;2023-03-01T15:58:40;21.17;;;13.93;;
23596;SDS011;40226;50.874;4.394;2023-03-01T16:01:10;23.33;;;13.95;;
23596;SDS011;40226;50.874;4.394;2023-03-01T16:03:38;23.80;;;14.23;;
23596;SDS011;40226;50.874;4.394;2023-03-01T16:06:04;25.05;;;14.77;;
23596;SDS011;40226;50.874;4.394;2023-03-01T16:08:30;23.73;;;13.40;;
23596;SDS011;40226;50.874;4.394;2023-03-01T16:10:55;42.95;;;15.55;;
23596;SDS011;40226;50.874;4.394;2023-03-01T16:13:21;23.48;;;13.88;;
23596;SDS011;40226;50.874;4.394;2023-03-01T16:15:47;22.98;;;13.48;;
23596;SDS011;40226;50.874;4.394;2023-03-01T16:18:12;22.27;;;14.73;;
23596;SDS011;40226;50.874;4.394;2023-03-01T16:20:38;26.38;;;14.63;;
23596;SDS011;40226;50.874;4.394;2023-03-01T16:23:06;23.80;;;14.02;;
23596;SDS011;40226;50.874;4.394;2023-03-01T16:25:33;21.33;;;13.88;;
23596;SDS011;40226;50.874;4.394;2023-03-01T16:28:01;26.98;;;14.95;;
23596;SDS011;40226;50.874;4.394;2023-03-01T16:30:33;22.00;;;13.88;;
23596;SDS011;40226;50.874;4.394;2023-03-01T16:33:00;22.20;;;13.55;;
23596;SDS011;40226;50.874;4.394;2023-03-01T16:35:26;22.52;;;13.93;;
23596;SDS011;40226;50.874;4.394;2023-03-01T16:37:51;19.90;;;13.65;;
23596;SDS011;40226;50.874;4.394;2023-03-01T16:40:22;19.60;;;13.57;;
23596;SDS011;40226;50.874;4.394;2023-03-01T16:42:51;20.45;;;13.85;;
23596;SDS011;40226;50.874;4.394;2023-03-01T16:45:17;20.20;;;12.95;;
23596;SDS011;40226;50.874;4.394;2023-03-01T16:47:44;21.08;;;14.10;;
23596;SDS011;40226;50.874;4.394;2023-03-01T16:50:10;27.33;;;14.63;;